Flight Track Log - Related Links

Times and Time Zones

All times are in EST time to prevent confusion due to time zone crossing. See the UCA596 flight status page for this flight to view local times or setup timezone preferences in your user account.

Time Position Orientation Groundspeed Altitude Reporting Facility
EST Latitude Longitude Course Direction KTS MPH feet Rate Location/Type
Wed 01:11:06 PM 38.9833 -77.5167 North 169 194 2,900  Level Potomac TRACON
Wed 01:12:00 PM 39.0167 -77.5000 21° North 176 203 4,600 1,755 Climbing Potomac TRACON
Wed 01:13:33 PM 39.0858 -77.4983 North 179 206 7,200 1,714 Climbing Washington Center
Wed 01:14:34 PM 39.1339 -77.4914 North 179 206 9,000 1,627 Climbing Washington Center
Wed 01:15:31 PM 39.1842 -77.4875 North 179 206 10,400 1,475 Climbing Washington Center
Wed 01:16:00 PM 39.4032 -77.4500 North  Level FlightAware Approximate
Wed 01:16:32 PM 39.2383 -77.4833 North 184 212 11,900  Level Washington Center
Wed 01:17:33 PM 39.2925 -77.4794 North 184 212 13,600 1,636 Climbing Washington Center
Wed 01:18:33 PM 39.3467 -77.4756 North 184 212 15,200 1,488 Climbing Washington Center
Wed 01:19:34 PM 39.4011 -77.4717 North 184 212 16,600 1,190 Climbing Washington Center
Wed 01:20:34 PM 39.4617 -77.4678 North 194 223 17,600 883 Climbing Washington Center
Wed 01:22:17 PM 39.5775 -77.4622 North 222 255 19,000 515 Climbing New York Center
Wed 01:23:17 PM 39.6511 -77.4531 North 250 288 19,000  Level New York Center
Wed 01:24:17 PM 39.7264 -77.4492 North 261 300 19,000  Level New York Center
Wed 01:25:17 PM 39.8014 -77.4508 359° North 267 307 19,000  Level New York Center
Wed 01:26:17 PM 39.8778 -77.4258 14° North 272 313 19,000  Level New York Center
Wed 01:27:17 PM 39.9556 -77.3789 25° Northeast 301 346 19,000  Level New York Center
Wed 01:28:17 PM 40.0306 -77.3400 22° Northeast 301 346 19,000  Level New York Center
Wed 01:29:17 PM 40.1081 -77.2983 22° Northeast 301 346 19,000  Level New York Center
Wed 01:30:17 PM 40.1833 -77.2567 23° Northeast 301 346 19,000  Level New York Center
Wed 01:31:17 PM 40.2608 -77.2122 24° Northeast 301 346 19,000  Level New York Center
Wed 01:32:17 PM 40.3381 -77.1731 21° North 301 346 19,000  Level New York Center
Wed 01:33:17 PM 40.4069 -77.1331 24° Northeast 301 346 19,000  Level New York Center
Wed 01:34:17 PM 40.4969 -77.0867 21° North 301 346 19,000  Level New York Center
Wed 01:35:17 PM 40.5636 -77.0464 25° Northeast 301 346 19,000  Level New York Center
Wed 01:36:17 PM 40.6494 -76.9994 23° Northeast 301 346 19,000  Level New York Center
Wed 01:37:17 PM 40.7203 -76.9594 23° Northeast 301 346 19,000 -450 Level New York Center
Wed 01:38:17 PM 40.8103 -76.9128 21° North 306 352 18,100 -800 Descending New York Center
Wed 01:39:17 PM 40.8814 -76.8697 25° Northeast 306 352 17,400 -550 Descending New York Center
Wed 01:40:17 PM 40.9650 -76.8222 23° Northeast 306 352 17,000 -200 Descending New York Center
Wed 01:41:17 PM 41.0422 -76.7794 23° Northeast 301 346 17,000  Level New York Center
Wed 01:42:17 PM 41.1153 -76.7392 23° Northeast 295 339 17,000  Level New York Center
Wed 01:43:17 PM 41.1881 -76.6958 24° Northeast 290 334 17,000  Level New York Center
Wed 01:44:17 PM 41.2589 -76.6553 23° Northeast 284 327 17,000  Level New York Center
Wed 01:45:17 PM 41.3319 -76.6119 24° Northeast 284 327 17,000  Level New York Center
Wed 01:46:17 PM 41.3983 -76.5761 22° Northeast 284 327 17,000 -50 Level New York Center
Wed 01:47:17 PM 41.4797 -76.5306 23° Northeast 284 327 16,900 -700 Descending New York Center
Wed 01:48:17 PM 41.5569 -76.4844 24° Northeast 284 327 15,600 -1,400 Descending New York Center
Wed 01:49:17 PM 41.6317 -76.4436 22° Northeast 284 327 14,100 -1,450 Descending New York Center
Wed 01:50:17 PM 41.6958 -76.4075 23° Northeast 279 321 12,700 -1,500 Descending New York Center
Wed 01:51:17 PM 41.7608 -76.3544 31° Northeast 274 315 11,100 -1,650 Descending New York Center
Wed 01:52:17 PM 41.8303 -76.2964 32° Northeast 269 310 9,400 -1,550 Descending New York Center
Wed 01:53:17 PM 41.8908 -76.2456 32° Northeast 264 304 8,000 -1,450 Descending New York Center
Wed 01:54:17 PM 41.9492 -76.1975 31° Northeast 259 298 6,500 -1,450 Descending New York Center
Wed 01:55:17 PM 42.0011 -76.1544 32° Northeast 243 280 5,100 -1,250 Descending New York Center
Wed 01:56:17 PM 42.0597 -76.1061 31° Northeast 243 280 4,000 -550 Descending New York Center
Wed 01:57:17 PM 42.1114 -76.0656 30° Northeast 238 274 4,000 -150 Level New York Center
Wed 01:58:17 PM 42.1569 -76.0244 34° Northeast 213 245 3,700 -350 Descending New York Center
Wed 01:59:17 PM 42.1681 -75.9581 77° East 176 203 3,300 -450 Descending New York Center
Wed 02:00:17 PM 42.1869 -75.9092 62° Northeast 164 189 2,800 -550 Descending New York Center
Wed 02:01:17 PM 42.2067 -75.9331 318° Northwest 73 84 2,200 -300 Descending New York Center
Wed 02:02:17 PM 42.2258 -75.9261 15° North 64 74 2,200  Level New York Center
Wed 02:04:00 PM 42.2000 -75.9667 246° West  Level FlightAware Approximate
Wed 02:11:00 PM 42.2084 -75.9796 246° West  Level Estimated
Wed 02:12:00 PM 42.2084 -75.9796 246° West  Level Estimated

Login

Don't have an account? Register now (free) for customized features, flight alerts, and more!